This is the latest recevied weather packets stored in our database for station/object WX6HNX-4. If no packets are shown the sender has not sent any weather packets the latest 10 day(s).
| Time | Temp. | Humidity | Pressure | Rain* | Wind** | Luminosity | Snow |
|---|---|---|---|---|---|---|---|
| 1777708567 | 20.56° C | 44% | 1003.2 hPa | 0 mm | - | - | - |
| 1777707366 | 21.11° C | 42% | 1003.3 hPa | 0 mm | - | - | - |
| 1777707000 | 21.11° C | 42% | 1003.3 hPa | 0 mm | - | - | - |
| 1777706398 | 21.67° C | 41% | 1003.2 hPa | 0 mm | - | - | - |
| 1777705798 | 20.56° C | 45% | 1003.3 hPa | 0 mm | - | - | - |
| 1777703998 | 20.56° C | 45% | 1003.2 hPa | 0 mm | - | - | - |
| 1777703697 | 21.11° C | 44% | 1003.2 hPa | 0 mm | - | - | - |
| 1777703397 | 21.11° C | 44% | 1003.2 hPa | 0 mm | - | - | - |
| 1777703097 | 20.56° C | 45% | 1003.1 hPa | 0 mm | - | - | - |
| 1777702497 | 21.11° C | 45% | 1003.1 hPa | 0 mm | - | - | - |
| 1777701898 | 21.11° C | 45% | 1003.1 hPa | 0 mm | - | - | - |
| 1777700993 | 21.11° C | 46% | 1003.2 hPa | 0 mm | - | - | - |
| 1777700693 | 21.11° C | 45% | 1003.1 hPa | 0 mm | - | - | - |
| 1777699793 | 21.11° C | 46% | 1003.1 hPa | 0 mm | - | - | - |
| 1777699193 | 20.56° C | 47% | 1003.2 hPa | 0 mm | - | - | - |
| 1777698893 | 20.56° C | 48% | 1003.3 hPa | 0 mm | - | - | - |
| 1777698593 | 20.56° C | 48% | 1003.2 hPa | 0 mm | - | - | - |
| 1777697535 | 21.11° C | 48% | 1003.1 hPa | 0 mm | - | - | - |
| 1777696634 | 21.11° C | 49% | 1002.9 hPa | 0 mm | - | - | - |
| 1777695435 | 21.11° C | 48% | 1002.7 hPa | 0 mm | - | - | - |
| 1777691542 | 22.22° C | 46% | 1001.9 hPa | 0 mm | - | - | - |
| 1777690648 | 22.22° C | 47% | 1001.8 hPa | 0 mm | - | - | - |
| 1777662125 | 25° C | 43% | 1004.8 hPa | 0 mm | - | - | - |
| 1777654822 | 23.33° C | 47% | 1005.5 hPa | 0 mm | - | - | - |
| 1777650323 | 21.67° C | 48% | 1005.8 hPa | 0 mm | - | - | - |
* Rain latest hour (hover to see other rain measurements)
** Current wind speed in m/s (hover to see current wind gust speed)